Bamberg, South Carolina
Current Conditions -  °F | °C
As of 3:53 PM on Saturday 22 Nov 2014 (Local Time) from KOGB Reporting Station
Clear Clear  
Wind Chill: 62°   Ceiling: Unl
Heat Index: 62°   Visibility: 10mi
Dew Point: 29°   Wind: 6mph
Humidity: 29%   Direction: NA
Pressure: 30.36"   Gusts: NA
Location:  33.3°N, 81.03°W
Report Text: KOGB 222053Z AUTO VRB05KT 10SM CLR 17/M02 A3036 RMK AO2 SLP278 T01671017 56026
Loading
Personal Weather Stations






























Interactive Weather Map New forecast layout! Learn more

10-Day Weather Forecast

Advertisements
Track Severe Weather on mobile